createdAt,value
2022-09-14T00:01:40.665Z,20.58
2022-09-14T00:04:11.997Z,20.90
2022-09-14T00:06:40.833Z,18.30
2022-09-14T00:09:11.496Z,21.52
2022-09-14T00:11:41.351Z,19.52
2022-09-14T00:14:09.857Z,19.27
2022-09-14T00:16:41.465Z,22.52
2022-09-14T00:19:17.711Z,24.90
2022-09-14T00:21:46.013Z,21.20
2022-09-14T00:24:14.226Z,20.15
2022-09-14T00:26:42.604Z,21.30
2022-09-14T00:29:12.523Z,18.95
2022-09-14T00:31:42.655Z,16.75
2022-09-14T00:34:15.024Z,18.42
2022-09-14T00:36:46.359Z,16.45
2022-09-14T00:39:15.751Z,17.17
2022-09-14T00:41:48.067Z,18.30
2022-09-14T00:44:49.273Z,15.63
2022-09-14T00:47:19.319Z,15.30
2022-09-14T00:49:47.668Z,17.08
2022-09-14T00:52:19.459Z,14.68
2022-09-14T00:54:49.692Z,15.95
2022-09-14T00:57:18.396Z,13.32
2022-09-14T00:59:48.776Z,14.45
2022-09-14T01:02:19.652Z,15.88
2022-09-14T01:04:48.486Z,13.27
2022-09-14T01:07:26.792Z,14.25
2022-09-14T01:10:04.356Z,14.23
2022-09-14T01:12:41.783Z,15.00
2022-09-14T01:15:18.201Z,14.57
2022-09-14T01:17:55.123Z,13.00
2022-09-14T01:20:30.245Z,15.35
2022-09-14T01:23:07.022Z,11.73
2022-09-14T01:26:06.127Z,12.45
2022-09-14T01:28:40.563Z,13.10
2022-09-14T01:31:14.109Z,11.95
2022-09-14T01:36:16.212Z,10.32
2022-09-14T01:38:46.860Z,12.20
2022-09-14T01:41:18.661Z,12.45
2022-09-14T01:43:54.142Z,11.13
2022-09-14T01:46:26.785Z,12.57
2022-09-14T01:49:02.427Z,12.32
2022-09-14T01:51:37.582Z,10.77
2022-09-14T01:54:12.750Z,13.02
2022-09-14T01:56:49.797Z,10.90
2022-09-14T01:59:22.975Z,15.85
2022-09-14T02:01:55.250Z,11.18
2022-09-14T02:04:30.988Z,10.70
2022-09-14T02:06:59.422Z,13.55
2022-09-14T02:09:28.109Z,14.32
2022-09-14T02:12:01.018Z,11.52
2022-09-14T02:14:31.073Z,8.80
2022-09-14T02:16:59.518Z,14.45
2022-09-14T02:19:31.533Z,11.60
2022-09-14T02:22:00.392Z,11.15
2022-09-14T02:24:29.427Z,11.32
2022-09-14T02:26:59.657Z,12.90
2022-09-14T02:29:28.194Z,10.85
2022-09-14T02:32:17.036Z,13.95
2022-09-14T02:34:55.639Z,11.73
2022-09-14T02:37:36.099Z,7.85
2022-09-14T02:40:11.842Z,13.55
2022-09-14T02:42:48.329Z,13.18
2022-09-14T02:45:25.400Z,13.07
2022-09-14T02:48:03.572Z,13.25
2022-09-14T02:50:38.072Z,11.77
2022-09-14T02:53:12.559Z,9.93
2022-09-14T02:55:45.453Z,13.43
2022-09-14T02:58:15.857Z,11.90
2022-09-14T03:00:47.036Z,12.10
2022-09-14T03:03:18.585Z,13.30
2022-09-14T03:05:47.638Z,11.80
2022-09-14T03:08:15.959Z,13.13
2022-09-14T03:10:45.433Z,11.45
2022-09-14T03:13:13.877Z,13.00
2022-09-14T03:15:42.107Z,12.80
2022-09-14T03:18:14.236Z,12.48
2022-09-14T03:20:44.646Z,15.77
2022-09-14T03:23:13.909Z,11.82
2022-09-14T03:25:44.214Z,10.13
2022-09-14T03:28:13.876Z,14.02
2022-09-14T03:30:42.358Z,9.70
2022-09-14T03:33:10.677Z,14.25
2022-09-14T03:35:38.785Z,13.43
2022-09-14T03:38:08.795Z,12.50
2022-09-14T03:40:37.140Z,10.98
2022-09-14T03:43:05.254Z,14.05
2022-09-14T03:45:33.586Z,12.50
2022-09-14T03:48:01.843Z,15.98
2022-09-14T03:50:29.879Z,18.48
2022-09-14T03:52:58.517Z,15.55
2022-09-14T03:55:28.338Z,15.75
2022-09-14T03:57:56.567Z,16.88
2022-09-14T04:00:24.983Z,14.70
2022-09-14T04:02:53.726Z,13.80
2022-09-14T04:05:22.162Z,15.18
2022-09-14T04:07:50.649Z,14.98
2022-09-14T04:10:19.068Z,18.58
2022-09-14T04:12:48.567Z,19.48
2022-09-14T04:15:16.991Z,20.13
2022-09-14T04:17:45.365Z,20.10
2022-09-14T04:20:13.456Z,21.70
2022-09-14T04:22:41.833Z,19.33
2022-09-14T04:25:10.405Z,19.98
2022-09-14T04:27:38.645Z,22.33
2022-09-14T04:30:09.465Z,20.63
2022-09-14T04:32:37.691Z,22.80
2022-09-14T04:35:06.279Z,23.23
2022-09-14T04:37:34.928Z,24.55
2022-09-14T04:40:03.920Z,21.73
2022-09-14T04:42:32.180Z,24.55
2022-09-14T04:45:00.481Z,25.20
2022-09-14T04:47:31.011Z,28.00
2022-09-14T04:49:59.148Z,26.48
2022-09-14T04:52:27.313Z,27.13
2022-09-14T04:54:55.671Z,22.95
2022-09-14T04:57:23.923Z,25.65
2022-09-14T04:59:52.185Z,25.48
2022-09-14T05:02:20.601Z,24.65
2022-09-14T05:04:50.367Z,25.65
2022-09-14T05:07:18.647Z,26.33
2022-09-14T05:09:46.867Z,26.33
2022-09-14T05:12:15.017Z,23.60
2022-09-14T05:14:43.266Z,26.33
2022-09-14T05:17:11.562Z,27.67
2022-09-14T05:19:39.699Z,28.00
2022-09-14T05:22:09.453Z,29.23
2022-09-14T05:24:37.653Z,29.80
2022-09-14T05:27:05.805Z,28.73
2022-09-14T05:29:34.083Z,27.48
2022-09-14T05:32:02.376Z,28.85
2022-09-14T05:34:30.511Z,29.10
2022-09-14T05:36:58.971Z,31.08
2022-09-14T05:39:28.586Z,32.92
2022-09-14T05:41:56.700Z,33.25
2022-09-14T05:44:24.947Z,31.95
2022-09-14T05:46:53.276Z,33.10
2022-09-14T05:49:21.580Z,35.50
2022-09-14T05:51:49.884Z,33.45
2022-09-14T05:54:18.366Z,33.15
2022-09-14T05:56:48.299Z,33.75
2022-09-14T05:59:16.793Z,35.60
2022-09-14T06:01:45.161Z,34.17
2022-09-14T06:04:13.535Z,33.42
2022-09-14T06:06:46.913Z,36.75
2022-09-14T06:09:24.495Z,34.08
2022-09-14T06:11:54.625Z,34.05
2022-09-14T06:14:23.042Z,31.65
2022-09-14T06:16:51.560Z,33.40
2022-09-14T06:19:20.049Z,35.65
2022-09-14T06:21:48.164Z,33.70
2022-09-14T06:24:16.657Z,32.95
2022-09-14T06:26:45.167Z,32.80
2022-09-14T06:29:14.891Z,33.80
2022-09-14T06:31:43.233Z,31.02
2022-09-14T06:34:11.741Z,35.08
2022-09-14T06:36:40.059Z,31.85
2022-09-14T06:39:08.434Z,32.03
2022-09-14T06:41:36.699Z,29.73
2022-09-14T06:44:05.007Z,30.60
2022-09-14T06:46:35.450Z,34.25
2022-09-14T06:49:06.989Z,33.22
2022-09-14T06:51:37.320Z,31.08
2022-09-14T06:54:07.008Z,32.10
2022-09-14T06:56:37.494Z,28.48
2022-09-14T06:59:06.321Z,29.33
2022-09-14T07:01:36.464Z,29.05
2022-09-14T07:04:06.024Z,29.33
2022-09-14T07:06:40.002Z,28.85
2022-09-14T07:09:08.671Z,30.67
2022-09-14T07:11:37.519Z,26.65
2022-09-14T07:14:06.123Z,26.15
2022-09-14T07:16:37.230Z,25.40
2022-09-14T07:19:07.980Z,25.30
2022-09-14T07:21:36.427Z,27.00
2022-09-14T07:24:04.817Z,25.52
2022-09-14T07:26:39.579Z,24.58
2022-09-14T07:29:09.743Z,23.85
2022-09-14T07:31:42.214Z,24.00
2022-09-14T07:34:10.728Z,22.88
2022-09-14T07:36:39.414Z,19.92
2022-09-14T07:39:12.371Z,21.02
2022-09-14T07:41:41.103Z,21.90
2022-09-14T07:44:10.635Z,24.08
2022-09-14T07:46:42.321Z,24.58
2022-09-14T07:49:11.903Z,23.17
2022-09-14T07:51:40.830Z,23.67
2022-09-14T07:54:12.555Z,22.65
2022-09-14T07:56:40.691Z,18.63
2022-09-14T07:59:34.568Z,20.58
2022-09-14T08:02:01.839Z,24.40
2022-09-14T08:04:30.093Z,22.23
2022-09-14T08:06:58.440Z,20.55
2022-09-14T08:09:27.010Z,20.77
2022-09-14T08:11:55.208Z,21.23
2022-09-14T08:14:23.924Z,21.05
2022-09-14T08:16:52.190Z,20.95
2022-09-14T08:19:21.923Z,19.67
2022-09-14T08:21:51.205Z,20.77
2022-09-14T08:24:21.601Z,23.15
2022-09-14T08:26:50.263Z,19.23
2022-09-14T08:29:20.189Z,21.48
2022-09-14T08:31:51.748Z,19.25
2022-09-14T08:34:22.179Z,19.63
2022-09-14T08:36:50.600Z,18.58
2022-09-14T08:39:19.611Z,20.13
2022-09-14T08:41:56.096Z,18.88
2022-09-14T08:44:28.265Z,22.67
2022-09-14T08:47:01.895Z,20.92
2022-09-14T08:52:26.551Z,21.65
2022-09-14T08:54:57.920Z,22.50
2022-09-14T08:57:32.004Z,22.77
2022-09-14T09:00:09.073Z,23.23
2022-09-14T09:03:01.712Z,21.58
2022-09-14T09:05:41.450Z,23.45
2022-09-14T09:08:19.530Z,24.00
2022-09-14T09:10:49.028Z,25.42
2022-09-14T09:13:20.762Z,23.88
2022-09-14T09:15:50.993Z,24.55
2022-09-14T09:18:23.880Z,23.15
2022-09-14T09:20:56.120Z,25.97
2022-09-14T09:23:28.618Z,24.38
2022-09-14T09:26:01.361Z,22.05
2022-09-14T09:28:30.935Z,21.97
2022-09-14T09:31:05.119Z,20.92
2022-09-14T09:33:34.313Z,23.23
2022-09-14T09:36:02.960Z,22.10
2022-09-14T09:38:32.833Z,21.55
2022-09-14T09:41:07.598Z,21.63
2022-09-14T09:43:49.217Z,21.58
2022-09-14T09:46:19.288Z,21.15
2022-09-14T09:48:48.477Z,22.08
2022-09-14T09:51:26.531Z,21.90
2022-09-14T09:53:59.745Z,21.85
2022-09-14T09:56:30.157Z,22.42
2022-09-14T09:58:58.455Z,21.88
2022-09-14T10:01:30.367Z,23.38
2022-09-14T10:04:05.833Z,22.98
2022-09-14T10:06:42.083Z,21.15
2022-09-14T10:09:16.958Z,21.70
2022-09-14T10:11:47.121Z,22.00
2022-09-14T10:14:25.322Z,21.95
2022-09-14T10:16:54.069Z,22.15
2022-09-14T10:19:26.289Z,22.02
2022-09-14T10:22:07.023Z,22.27
2022-09-14T10:24:38.591Z,21.65
2022-09-14T10:27:37.801Z,21.95
2022-09-14T10:30:08.310Z,22.15
2022-09-14T10:32:38.485Z,23.88
2022-09-14T10:35:13.998Z,24.13
2022-09-14T10:37:51.216Z,22.63
2022-09-14T10:40:29.061Z,22.77
2022-09-14T10:43:09.723Z,23.02
2022-09-14T10:45:42.108Z,22.23
2022-09-14T10:48:36.999Z,22.13
2022-09-14T10:51:25.605Z,21.88
2022-09-14T10:54:09.690Z,21.95
2022-09-14T10:56:54.961Z,22.55
2022-09-14T10:59:32.972Z,22.23
2022-09-14T11:02:31.599Z,22.20
2022-09-14T11:05:14.379Z,22.88
2022-09-14T11:07:52.795Z,22.63
2022-09-14T11:10:27.856Z,22.08
2022-09-14T11:13:17.957Z,23.58
2022-09-14T11:15:54.784Z,22.27
2022-09-14T11:18:28.941Z,22.55
2022-09-14T11:21:10.427Z,24.08
2022-09-14T11:23:47.423Z,23.17
2022-09-14T11:26:20.646Z,22.90
2022-09-14T11:28:53.768Z,25.58
2022-09-14T11:31:26.354Z,24.83
2022-09-14T11:33:59.998Z,26.95
2022-09-14T11:39:06.834Z,24.80
2022-09-14T11:41:42.959Z,25.98
2022-09-14T11:44:17.519Z,25.50
2022-09-14T11:46:49.896Z,24.80
2022-09-14T11:49:22.645Z,22.65
2022-09-14T11:51:56.744Z,23.17
2022-09-14T11:54:25.611Z,26.63
2022-09-14T11:56:57.677Z,22.13
2022-09-14T11:59:51.495Z,25.92
2022-09-14T12:03:00.887Z,26.52
2022-09-14T12:05:37.031Z,28.40
2022-09-14T12:08:29.236Z,28.25
2022-09-14T12:11:02.160Z,27.77
2022-09-14T12:13:30.528Z,28.25
2022-09-14T12:16:07.774Z,28.15
2022-09-14T12:18:38.360Z,27.05
2022-09-14T12:21:09.317Z,32.15
2022-09-14T12:23:46.190Z,31.77
2022-09-14T12:26:31.492Z,31.30
2022-09-14T12:29:05.916Z,32.30
2022-09-14T12:32:03.240Z,29.88
2022-09-14T12:34:33.502Z,27.85
2022-09-14T12:37:30.808Z,28.83
2022-09-14T12:40:36.899Z,27.95
2022-09-14T12:43:44.798Z,30.63
2022-09-14T12:46:33.461Z,29.10
2022-09-14T12:49:05.561Z,31.80
2022-09-14T12:51:43.374Z,31.23
2022-09-14T12:54:23.905Z,33.40
2022-09-14T12:57:09.496Z,31.80
2022-09-14T12:59:45.800Z,29.58
2022-09-14T13:02:54.954Z,27.73
2022-09-14T13:05:28.975Z,28.75
2022-09-14T13:07:58.146Z,30.63
2022-09-14T13:10:31.512Z,29.80
2022-09-14T13:13:02.236Z,29.63
2022-09-14T13:15:33.701Z,28.92
2022-09-14T13:18:04.416Z,28.42
2022-09-14T13:20:36.017Z,31.98
2022-09-14T13:23:04.890Z,29.90
2022-09-14T13:25:36.148Z,31.65
2022-09-14T13:28:07.629Z,30.77
2022-09-14T13:30:37.351Z,30.10
2022-09-14T13:33:05.954Z,36.30
2022-09-14T13:35:39.538Z,34.05
2022-09-14T13:40:37.575Z,32.28
2022-09-14T13:43:06.079Z,30.35
2022-09-14T13:45:35.170Z,32.05
2022-09-14T13:48:05.093Z,29.55
2022-09-14T13:50:34.715Z,30.17
2022-09-14T13:53:04.813Z,30.58
2022-09-14T13:55:45.173Z,31.48
2022-09-14T13:58:23.894Z,26.17
2022-09-14T14:00:58.478Z,28.05
2022-09-14T14:03:32.964Z,27.00
2022-09-14T14:06:04.705Z,24.88
2022-09-14T14:08:37.508Z,25.67
2022-09-14T14:11:09.290Z,25.50
2022-09-14T14:13:38.728Z,24.40
2022-09-14T14:16:19.024Z,25.27
2022-09-14T14:18:57.083Z,22.48
2022-09-14T14:21:31.736Z,23.63
2022-09-14T14:24:27.212Z,23.77
2022-09-14T14:26:57.441Z,25.95
2022-09-14T14:29:27.333Z,26.90
2022-09-14T14:31:57.006Z,23.55
2022-09-14T14:34:27.369Z,21.67
2022-09-14T14:36:55.940Z,23.35
2022-09-14T14:39:26.577Z,24.83
2022-09-14T14:41:56.114Z,22.88
2022-09-14T14:44:28.307Z,22.08
2022-09-14T14:46:57.308Z,27.42
2022-09-14T14:49:25.613Z,33.22
2022-09-14T14:51:54.250Z,36.30
2022-09-14T14:54:22.758Z,34.15
2022-09-14T14:56:52.998Z,34.58
2022-09-14T14:59:29.641Z,35.03
2022-09-14T15:01:58.594Z,32.00
2022-09-14T15:04:27.080Z,28.35
2022-09-14T15:06:58.014Z,26.35
2022-09-14T15:09:29.185Z,26.13
2022-09-14T15:11:58.773Z,24.85
2022-09-14T15:14:27.876Z,24.00
2022-09-14T15:17:00.291Z,24.98
2022-09-14T15:19:28.860Z,23.55
2022-09-14T15:22:01.092Z,19.98
2022-09-14T15:24:30.397Z,23.70
2022-09-14T15:27:00.394Z,25.67
2022-09-14T15:29:28.720Z,23.80
2022-09-14T15:31:57.240Z,28.63
2022-09-14T15:34:25.577Z,29.75
2022-09-14T15:36:54.937Z,32.80
2022-09-14T15:39:25.761Z,37.55
2022-09-14T15:41:54.428Z,39.38
2022-09-14T15:44:24.709Z,39.83
2022-09-14T15:46:53.280Z,46.42
2022-09-14T15:49:22.953Z,49.88
2022-09-14T15:51:53.132Z,47.05
2022-09-14T15:54:23.198Z,44.63
2022-09-14T15:56:53.005Z,50.10
2022-09-14T15:59:23.632Z,46.50
2022-09-14T16:01:52.126Z,48.40
2022-09-14T16:04:21.050Z,45.40
2022-09-14T16:06:49.532Z,47.95
2022-09-14T16:09:21.676Z,46.33
2022-09-14T16:11:50.302Z,53.13
2022-09-14T16:14:18.474Z,53.58
2022-09-14T16:16:48.203Z,49.53
2022-09-14T16:19:16.570Z,52.75
2022-09-14T16:21:44.803Z,52.15
2022-09-14T16:24:15.858Z,52.50
2022-09-14T16:26:47.594Z,58.22
2022-09-14T16:29:17.934Z,54.42
2022-09-14T16:31:49.352Z,51.83
2022-09-14T16:34:20.082Z,56.00
2022-09-14T16:36:49.278Z,56.78
2022-09-14T16:39:19.967Z,51.85
2022-09-14T16:41:48.509Z,48.42
2022-09-14T16:44:19.134Z,37.38
2022-09-14T16:46:49.629Z,36.25
2022-09-14T16:49:18.113Z,38.92
2022-09-14T16:51:46.432Z,38.85
2022-09-14T16:54:16.916Z,42.00
2022-09-14T16:56:46.416Z,43.00
2022-09-14T16:59:15.767Z,45.60
2022-09-14T17:01:50.853Z,45.05
2022-09-14T17:04:23.670Z,44.38
2022-09-14T17:06:53.362Z,45.13
2022-09-14T17:09:23.392Z,45.45
2022-09-14T17:11:52.140Z,43.72
2022-09-14T17:14:22.308Z,42.45
2022-09-14T17:16:50.922Z,43.00
2022-09-14T17:19:20.035Z,41.97
2022-09-14T17:21:50.304Z,42.15
2022-09-14T17:24:19.688Z,40.53
2022-09-14T17:26:48.249Z,40.67
2022-09-14T17:29:17.372Z,41.25
2022-09-14T17:31:46.558Z,38.75
2022-09-14T17:34:17.155Z,39.20
2022-09-14T17:36:45.747Z,38.80
2022-09-14T17:39:16.364Z,35.78
2022-09-14T17:41:44.732Z,38.92
2022-09-14T17:44:14.828Z,35.10
2022-09-14T17:46:52.536Z,31.65
2022-09-14T17:49:22.036Z,35.47
2022-09-14T17:51:50.868Z,36.20
2022-09-14T17:54:21.146Z,34.67
2022-09-14T17:56:49.511Z,32.25
2022-09-14T17:59:20.517Z,33.42
2022-09-14T18:01:49.351Z,34.38
2022-09-14T18:04:17.991Z,33.88
2022-09-14T18:06:47.869Z,34.00
2022-09-14T18:09:18.273Z,34.28
2022-09-14T18:11:49.083Z,34.47
2022-09-14T18:14:17.814Z,36.40
2022-09-14T18:16:46.248Z,35.55
2022-09-14T18:19:15.011Z,36.80
2022-09-14T18:21:44.457Z,35.58
2022-09-14T18:24:15.053Z,33.38
2022-09-14T18:26:43.670Z,34.15
2022-09-14T18:29:16.122Z,33.50
2022-09-14T18:31:45.049Z,34.30
2022-09-14T18:34:13.193Z,34.85
2022-09-14T18:36:41.422Z,35.60
2022-09-14T18:39:09.933Z,32.10
2022-09-14T18:41:38.102Z,34.10
2022-09-14T18:44:07.307Z,35.95
2022-09-14T18:46:38.184Z,38.10
2022-09-14T18:49:06.397Z,37.65
2022-09-14T18:51:34.701Z,35.65
2022-09-14T18:54:04.774Z,35.53
2022-09-14T18:56:34.524Z,40.30
2022-09-14T18:59:04.886Z,35.88
2022-09-14T19:01:35.053Z,43.42
2022-09-14T19:04:06.694Z,42.70
2022-09-14T19:06:36.530Z,40.15
2022-09-14T19:09:05.056Z,40.42
2022-09-14T19:11:35.519Z,43.05
2022-09-14T19:14:07.328Z,44.38
2022-09-14T19:16:35.637Z,43.28
2022-09-14T19:19:05.936Z,44.90
2022-09-14T19:21:34.628Z,46.65
2022-09-14T19:24:05.183Z,46.72
2022-09-14T19:26:38.198Z,40.67
2022-09-14T19:29:10.209Z,46.88
2022-09-14T19:31:39.223Z,56.60
2022-09-14T19:34:08.948Z,57.55
2022-09-14T19:36:37.321Z,62.22
2022-09-14T19:39:06.622Z,72.60
2022-09-14T19:41:35.694Z,70.10
2022-09-14T19:44:06.676Z,70.40
2022-09-14T19:46:36.449Z,76.60
2022-09-14T19:49:04.766Z,79.28
2022-09-14T19:51:35.025Z,79.15
2022-09-14T19:54:03.299Z,82.63
2022-09-14T19:56:33.214Z,78.32
2022-09-14T19:59:02.841Z,76.82
2022-09-14T20:01:33.068Z,78.75
2022-09-14T20:04:01.639Z,82.78
2022-09-14T20:06:31.884Z,85.80
2022-09-14T20:09:02.862Z,84.50
2022-09-14T20:11:32.729Z,78.32
2022-09-14T20:14:02.848Z,81.70
2022-09-14T20:16:33.447Z,76.18
2022-09-14T20:19:06.132Z,74.82
2022-09-14T20:21:36.140Z,76.10
2022-09-14T20:24:22.805Z,71.72
2022-09-14T20:26:52.794Z,66.97
2022-09-14T20:29:22.924Z,64.25
2022-09-14T20:31:51.722Z,62.58
2022-09-14T20:34:22.147Z,62.33
2022-09-14T20:36:50.915Z,62.60
2022-09-14T20:39:21.761Z,66.00
2022-09-14T20:41:50.674Z,65.75
2022-09-14T20:44:22.362Z,59.33
2022-09-14T20:46:51.658Z,53.28
2022-09-14T20:49:22.155Z,52.30
2022-09-14T20:51:52.773Z,53.83
2022-09-14T20:54:22.889Z,56.47
2022-09-14T20:56:51.081Z,53.65
2022-09-14T20:59:22.419Z,54.72
2022-09-14T21:01:52.729Z,51.17
2022-09-14T21:04:22.752Z,53.85
2022-09-14T21:06:53.383Z,51.22
2022-09-14T21:09:24.600Z,54.30
2022-09-14T21:11:53.888Z,54.60
2022-09-14T21:14:23.629Z,47.40
2022-09-14T21:16:55.418Z,53.90
2022-09-14T21:19:25.597Z,49.00
2022-09-14T21:21:54.061Z,41.72
2022-09-14T21:24:24.570Z,42.28
2022-09-14T21:26:53.024Z,44.70
2022-09-14T21:29:23.788Z,45.33
2022-09-14T21:31:52.811Z,43.83
2022-09-14T21:34:21.494Z,45.83
2022-09-14T21:36:51.909Z,42.50
2022-09-14T21:39:23.231Z,44.80
2022-09-14T21:41:58.292Z,43.95
2022-09-14T21:44:30.235Z,36.17
2022-09-14T21:46:58.424Z,36.70
2022-09-14T21:49:26.561Z,34.08
2022-09-14T21:51:55.433Z,33.13
2022-09-14T21:54:23.745Z,33.75
2022-09-14T21:56:54.146Z,35.58
2022-09-14T21:59:24.365Z,37.15
2022-09-14T22:01:52.969Z,40.78
2022-09-14T22:04:22.355Z,47.78
2022-09-14T22:06:53.433Z,42.88
2022-09-14T22:09:25.389Z,44.70
2022-09-14T22:11:55.886Z,45.03
2022-09-14T22:14:26.752Z,43.45
2022-09-14T22:16:55.471Z,46.30
2022-09-14T22:19:25.539Z,40.83
2022-09-14T22:21:53.839Z,48.40
2022-09-14T22:24:24.786Z,45.85
2022-09-14T22:26:56.156Z,44.38
2022-09-14T22:29:25.118Z,63.70
2022-09-14T22:31:53.475Z,47.05
2022-09-14T22:34:22.154Z,45.85
2022-09-14T22:36:50.550Z,43.40
2022-09-14T22:39:18.647Z,70.35
2022-09-14T22:41:46.917Z,46.08
2022-09-14T22:44:16.686Z,34.30
2022-09-14T22:46:44.977Z,36.70
2022-09-14T22:49:13.489Z,72.68
2022-09-14T22:51:41.729Z,34.63
2022-09-14T22:54:10.276Z,33.70
2022-09-14T22:56:42.326Z,33.38
2022-09-14T22:59:11.893Z,30.42
2022-09-14T23:01:42.915Z,29.23
2022-09-14T23:04:13.088Z,31.08
2022-09-14T23:06:43.859Z,28.95
2022-09-14T23:09:14.692Z,29.92
2022-09-14T23:11:44.651Z,27.05
2022-09-14T23:14:13.511Z,26.42
2022-09-14T23:16:45.110Z,25.52
2022-09-14T23:19:16.176Z,30.90
2022-09-14T23:21:44.526Z,25.70
2022-09-14T23:24:13.126Z,54.33
2022-09-14T23:26:41.402Z,26.35
2022-09-14T23:29:14.366Z,22.48
2022-09-14T23:31:44.182Z,29.85
2022-09-14T23:34:12.562Z,27.67
2022-09-14T23:36:41.222Z,27.38
2022-09-14T23:39:09.447Z,25.65
2022-09-14T23:41:37.979Z,24.42
2022-09-14T23:44:06.186Z,23.50
2022-09-14T23:46:34.591Z,27.52
2022-09-14T23:49:04.088Z,22.95
2022-09-14T23:51:32.509Z,24.90
2022-09-14T23:54:00.928Z,28.95
2022-09-14T23:56:29.088Z,31.38
2022-09-14T23:58:57.561Z,26.80
